sensor_id;sensor_type;location;lat;lon;timestamp;P1;durP1;ratioP1;P2;durP2;ratioP2
22201;SDS011;11266;51.522;6.302;2023-03-01T15:37:44;9.88;;;5.57;;
22201;SDS011;11266;51.522;6.302;2023-03-01T15:38:37;8.70;;;5.90;;
22201;SDS011;11266;51.522;6.302;2023-03-01T15:39:41;9.07;;;5.78;;
22201;SDS011;11266;51.522;6.302;2023-03-01T15:40:48;8.82;;;5.32;;
22201;SDS011;11266;51.522;6.302;2023-03-01T15:41:45;8.38;;;5.22;;
22201;SDS011;11266;51.522;6.302;2023-03-01T15:44:33;9.48;;;5.55;;
22201;SDS011;11266;51.522;6.302;2023-03-01T15:45:24;8.70;;;5.72;;
22201;SDS011;11266;51.522;6.302;2023-03-01T15:47:08;10.07;;;5.68;;
22201;SDS011;11266;51.522;6.302;2023-03-01T15:48:17;9.20;;;5.95;;
22201;SDS011;11266;51.522;6.302;2023-03-01T15:49:05;9.90;;;5.97;;
22201;SDS011;11266;51.522;6.302;2023-03-01T15:51:16;8.50;;;5.75;;
22201;SDS011;11266;51.522;6.302;2023-03-01T15:52:02;7.72;;;5.60;;
22201;SDS011;11266;51.522;6.302;2023-03-01T15:52:48;8.80;;;5.40;;
22201;SDS011;11266;51.522;6.302;2023-03-01T15:53:35;12.43;;;6.03;;
22201;SDS011;11266;51.522;6.302;2023-03-01T15:54:21;8.52;;;5.20;;
22201;SDS011;11266;51.522;6.302;2023-03-01T15:55:19;9.43;;;5.85;;
22201;SDS011;11266;51.522;6.302;2023-03-01T15:56:10;8.32;;;5.25;;
22201;SDS011;11266;51.522;6.302;2023-03-01T15:56:56;9.00;;;5.55;;
22201;SDS011;11266;51.522;6.302;2023-03-01T15:57:42;9.20;;;5.07;;
22201;SDS011;11266;51.522;6.302;2023-03-01T15:58:27;8.77;;;5.40;;
22201;SDS011;11266;51.522;6.302;2023-03-01T15:59:14;12.88;;;6.47;;
22201;SDS011;11266;51.522;6.302;2023-03-01T15:59:59;12.55;;;5.72;;
22201;SDS011;11266;51.522;6.302;2023-03-01T16:00:46;12.48;;;5.90;;
22201;SDS011;11266;51.522;6.302;2023-03-01T16:01:33;9.32;;;6.07;;
22201;SDS011;11266;51.522;6.302;2023-03-01T16:02:20;9.57;;;5.68;;
22201;SDS011;11266;51.522;6.302;2023-03-01T16:03:06;9.02;;;5.85;;
22201;SDS011;11266;51.522;6.302;2023-03-01T16:03:56;8.00;;;5.60;;
22201;SDS011;11266;51.522;6.302;2023-03-01T16:04:43;8.45;;;5.32;;
22201;SDS011;11266;51.522;6.302;2023-03-01T16:05:30;9.77;;;5.95;;
22201;SDS011;11266;51.522;6.302;2023-03-01T16:06:19;10.50;;;6.28;;
22201;SDS011;11266;51.522;6.302;2023-03-01T16:07:05;8.75;;;5.20;;
22201;SDS011;11266;51.522;6.302;2023-03-01T16:07:52;9.05;;;5.43;;
22201;SDS011;11266;51.522;6.302;2023-03-01T16:08:38;7.22;;;5.00;;
22201;SDS011;11266;51.522;6.302;2023-03-01T16:09:25;8.60;;;5.25;;
22201;SDS011;11266;51.522;6.302;2023-03-01T16:10:11;9.13;;;6.03;;
22201;SDS011;11266;51.522;6.302;2023-03-01T16:10:57;9.18;;;5.97;;
22201;SDS011;11266;51.522;6.302;2023-03-01T16:11:43;9.30;;;5.78;;
22201;SDS011;11266;51.522;6.302;2023-03-01T16:12:28;8.75;;;5.65;;
22201;SDS011;11266;51.522;6.302;2023-03-01T16:13:14;10.43;;;5.75;;
22201;SDS011;11266;51.522;6.302;2023-03-01T16:13:59;9.00;;;6.10;;
22201;SDS011;11266;51.522;6.302;2023-03-01T16:14:45;10.35;;;5.90;;
22201;SDS011;11266;51.522;6.302;2023-03-01T16:15:32;9.40;;;5.93;;
22201;SDS011;11266;51.522;6.302;2023-03-01T16:16:20;8.00;;;5.32;;
22201;SDS011;11266;51.522;6.302;2023-03-01T16:17:05;9.27;;;5.82;;
22201;SDS011;11266;51.522;6.302;2023-03-01T16:17:54;8.13;;;5.72;;
22201;SDS011;11266;51.522;6.302;2023-03-01T16:18:43;10.18;;;5.97;;
22201;SDS011;11266;51.522;6.302;2023-03-01T16:19:30;7.93;;;5.72;;
22201;SDS011;11266;51.522;6.302;2023-03-01T16:20:16;10.40;;;5.35;;
22201;SDS011;11266;51.522;6.302;2023-03-01T16:21:02;7.97;;;5.38;;
22201;SDS011;11266;51.522;6.302;2023-03-01T16:21:48;10.35;;;5.63;;
22201;SDS011;11266;51.522;6.302;2023-03-01T16:22:34;9.13;;;5.82;;
22201;SDS011;11266;51.522;6.302;2023-03-01T16:23:20;8.52;;;5.35;;
22201;SDS011;11266;51.522;6.302;2023-03-01T16:24:10;8.75;;;5.55;;
22201;SDS011;11266;51.522;6.302;2023-03-01T16:24:55;10.40;;;5.20;;
22201;SDS011;11266;51.522;6.302;2023-03-01T16:25:41;8.48;;;5.50;;
22201;SDS011;11266;51.522;6.302;2023-03-01T16:26:26;10.23;;;6.63;;
22201;SDS011;11266;51.522;6.302;2023-03-01T16:27:12;8.75;;;5.75;;
22201;SDS011;11266;51.522;6.302;2023-03-01T16:28:00;10.18;;;5.50;;
22201;SDS011;11266;51.522;6.302;2023-03-01T16:28:49;10.82;;;5.80;;
22201;SDS011;11266;51.522;6.302;2023-03-01T16:29:41;9.63;;;5.60;;
22201;SDS011;11266;51.522;6.302;2023-03-01T16:30:27;9.80;;;6.05;;
22201;SDS011;11266;51.522;6.302;2023-03-01T16:31:16;12.10;;;6.28;;
22201;SDS011;11266;51.522;6.302;2023-03-01T16:32:03;9.40;;;5.35;;
22201;SDS011;11266;51.522;6.302;2023-03-01T16:32:49;9.73;;;5.93;;
22201;SDS011;11266;51.522;6.302;2023-03-01T16:33:35;9.68;;;6.32;;
22201;SDS011;11266;51.522;6.302;2023-03-01T16:34:21;9.80;;;5.75;;
22201;SDS011;11266;51.522;6.302;2023-03-01T16:35:08;10.82;;;5.93;;
22201;SDS011;11266;51.522;6.302;2023-03-01T16:35:55;14.88;;;6.43;;
22201;SDS011;11266;51.522;6.302;2023-03-01T16:36:42;9.38;;;5.80;;
22201;SDS011;11266;51.522;6.302;2023-03-01T16:37:29;9.77;;;6.13;;
22201;SDS011;11266;51.522;6.302;2023-03-01T16:38:18;10.93;;;6.40;;
22201;SDS011;11266;51.522;6.302;2023-03-01T16:39:06;10.38;;;5.20;;
22201;SDS011;11266;51.522;6.302;2023-03-01T16:39:52;8.43;;;5.43;;
22201;SDS011;11266;51.522;6.302;2023-03-01T16:40:38;9.10;;;6.07;;
22201;SDS011;11266;51.522;6.302;2023-03-01T16:41:23;10.30;;;6.05;;
22201;SDS011;11266;51.522;6.302;2023-03-01T16:42:09;9.77;;;5.65;;
22201;SDS011;11266;51.522;6.302;2023-03-01T16:42:55;10.20;;;5.40;;
22201;SDS011;11266;51.522;6.302;2023-03-01T16:43:44;12.82;;;5.47;;
22201;SDS011;11266;51.522;6.302;2023-03-01T16:44:31;7.78;;;5.10;;
22201;SDS011;11266;51.522;6.302;2023-03-01T16:45:17;8.57;;;5.65;;
22201;SDS011;11266;51.522;6.302;2023-03-01T16:46:16;9.02;;;5.50;;
22201;SDS011;11266;51.522;6.302;2023-03-01T16:47:04;9.13;;;5.60;;
22201;SDS011;11266;51.522;6.302;2023-03-01T16:47:50;9.60;;;5.03;;
22201;SDS011;11266;51.522;6.302;2023-03-01T16:48:37;7.97;;;5.22;;
22201;SDS011;11266;51.522;6.302;2023-03-01T16:49:23;10.50;;;5.53;;
22201;SDS011;11266;51.522;6.302;2023-03-01T16:50:09;8.88;;;5.80;;
22201;SDS011;11266;51.522;6.302;2023-03-01T16:51:01;12.10;;;5.88;;
22201;SDS011;11266;51.522;6.302;2023-03-01T16:51:47;9.32;;;5.53;;
22201;SDS011;11266;51.522;6.302;2023-03-01T16:52:33;8.75;;;5.38;;
22201;SDS011;11266;51.522;6.302;2023-03-01T16:53:19;9.20;;;5.50;;
22201;SDS011;11266;51.522;6.302;2023-03-01T16:54:04;8.07;;;4.97;;
22201;SDS011;11266;51.522;6.302;2023-03-01T16:54:50;8.60;;;5.03;;
22201;SDS011;11266;51.522;6.302;2023-03-01T16:55:35;8.60;;;5.40;;
22201;SDS011;11266;51.522;6.302;2023-03-01T16:56:22;8.43;;;5.35;;
22201;SDS011;11266;51.522;6.302;2023-03-01T16:57:08;8.57;;;5.20;;
22201;SDS011;11266;51.522;6.302;2023-03-01T16:57:54;9.05;;;5.13;;
22201;SDS011;11266;51.522;6.302;2023-03-01T16:58:40;7.65;;;4.78;;
22201;SDS011;11266;51.522;6.302;2023-03-01T16:59:26;8.68;;;4.75;;
22201;SDS011;11266;51.522;6.302;2023-03-01T17:00:12;8.52;;;5.47;;
22201;SDS011;11266;51.522;6.302;2023-03-01T17:01:03;8.30;;;5.43;;
22201;SDS011;11266;51.522;6.302;2023-03-01T17:01:56;9.68;;;4.75;;
22201;SDS011;11266;51.522;6.302;2023-03-01T17:02:41;8.00;;;5.18;;
22201;SDS011;11266;51.522;6.302;2023-03-01T17:03:27;9.30;;;5.10;;
22201;SDS011;11266;51.522;6.302;2023-03-01T17:04:13;8.90;;;5.18;;
22201;SDS011;11266;51.522;6.302;2023-03-01T17:04:59;11.13;;;5.10;;
22201;SDS011;11266;51.522;6.302;2023-03-01T17:05:45;8.23;;;5.05;;
22201;SDS011;11266;51.522;6.302;2023-03-01T17:06:30;8.20;;;4.85;;
22201;SDS011;11266;51.522;6.302;2023-03-01T17:07:17;8.05;;;4.90;;
22201;SDS011;11266;51.522;6.302;2023-03-01T17:08:03;7.70;;;4.68;;
22201;SDS011;11266;51.522;6.302;2023-03-01T17:08:50;11.68;;;4.93;;
22201;SDS011;11266;51.522;6.302;2023-03-01T17:09:37;7.18;;;4.63;;
22201;SDS011;11266;51.522;6.302;2023-03-01T17:10:22;8.38;;;4.47;;
22201;SDS011;11266;51.522;6.302;2023-03-01T17:11:09;7.20;;;4.55;;
22201;SDS011;11266;51.522;6.302;2023-03-01T17:12:00;9.98;;;5.20;;
22201;SDS011;11266;51.522;6.302;2023-03-01T17:12:47;7.20;;;4.65;;
22201;SDS011;11266;51.522;6.302;2023-03-01T17:13:36;8.70;;;5.18;;
22201;SDS011;11266;51.522;6.302;2023-03-01T17:14:23;7.93;;;5.05;;
22201;SDS011;11266;51.522;6.302;2023-03-01T17:15:08;7.72;;;4.72;;
22201;SDS011;11266;51.522;6.302;2023-03-01T17:15:54;7.55;;;4.57;;
22201;SDS011;11266;51.522;6.302;2023-03-01T17:16:40;8.90;;;4.93;;
22201;SDS011;11266;51.522;6.302;2023-03-01T17:17:26;9.77;;;5.00;;
22201;SDS011;11266;51.522;6.302;2023-03-01T17:18:12;9.23;;;5.03;;
22201;SDS011;11266;51.522;6.302;2023-03-01T17:18:58;7.55;;;4.65;;
22201;SDS011;11266;51.522;6.302;2023-03-01T17:19:44;8.27;;;4.65;;
22201;SDS011;11266;51.522;6.302;2023-03-01T17:20:30;6.97;;;4.57;;
22201;SDS011;11266;51.522;6.302;2023-03-01T17:21:16;6.90;;;4.28;;
22201;SDS011;11266;51.522;6.302;2023-03-01T17:22:02;7.88;;;4.32;;
22201;SDS011;11266;51.522;6.302;2023-03-01T17:22:50;7.32;;;4.15;;
22201;SDS011;11266;51.522;6.302;2023-03-01T17:23:38;7.07;;;4.22;;
22201;SDS011;11266;51.522;6.302;2023-03-01T17:24:28;7.97;;;4.55;;
22201;SDS011;11266;51.522;6.302;2023-03-01T17:25:17;8.00;;;4.38;;
22201;SDS011;11266;51.522;6.302;2023-03-01T17:26:03;7.72;;;4.50;;
22201;SDS011;11266;51.522;6.302;2023-03-01T17:26:49;8.45;;;5.18;;
22201;SDS011;11266;51.522;6.302;2023-03-01T17:27:36;8.80;;;4.75;;
22201;SDS011;11266;51.522;6.302;2023-03-01T17:28:23;8.15;;;4.40;;
22201;SDS011;11266;51.522;6.302;2023-03-01T17:29:10;9.02;;;4.57;;
22201;SDS011;11266;51.522;6.302;2023-03-01T17:29:57;10.82;;;4.45;;
22201;SDS011;11266;51.522;6.302;2023-03-01T17:30:44;7.95;;;4.72;;
22201;SDS011;11266;51.522;6.302;2023-03-01T17:31:32;8.82;;;4.88;;
22201;SDS011;11266;51.522;6.302;2023-03-01T17:32:18;7.72;;;4.35;;
22201;SDS011;11266;51.522;6.302;2023-03-01T17:33:04;9.40;;;4.55;;
22201;SDS011;11266;51.522;6.302;2023-03-01T17:33:50;8.27;;;4.68;;
22201;SDS011;11266;51.522;6.302;2023-03-01T17:34:37;9.18;;;4.95;;
22201;SDS011;11266;51.522;6.302;2023-03-01T17:35:23;8.35;;;4.60;;
22201;SDS011;11266;51.522;6.302;2023-03-01T17:36:09;7.97;;;4.32;;
22201;SDS011;11266;51.522;6.302;2023-03-01T17:36:55;9.57;;;4.68;;
22201;SDS011;11266;51.522;6.302;2023-03-01T17:37:41;7.70;;;4.68;;
22201;SDS011;11266;51.522;6.302;2023-03-01T17:38:30;8.27;;;4.57;;
22201;SDS011;11266;51.522;6.302;2023-03-01T17:39:16;7.38;;;4.43;;
22201;SDS011;11266;51.522;6.302;2023-03-01T17:40:05;12.00;;;4.72;;
22201;SDS011;11266;51.522;6.302;2023-03-01T17:40:51;8.50;;;4.55;;
22201;SDS011;11266;51.522;6.302;2023-03-01T17:41:37;10.57;;;4.82;;
22201;SDS011;11266;51.522;6.302;2023-03-01T17:42:22;7.82;;;4.55;;
22201;SDS011;11266;51.522;6.302;2023-03-01T17:43:08;7.63;;;4.38;;
22201;SDS011;11266;51.522;6.302;2023-03-01T17:43:54;6.72;;;4.25;;
22201;SDS011;11266;51.522;6.302;2023-03-01T17:44:39;11.45;;;4.32;;
22201;SDS011;11266;51.522;6.302;2023-03-01T17:45:25;7.78;;;4.53;;
22201;SDS011;11266;51.522;6.302;2023-03-01T17:46:11;8.57;;;4.15;;
22201;SDS011;11266;51.522;6.302;2023-03-01T17:46:59;8.70;;;5.00;;
22201;SDS011;11266;51.522;6.302;2023-03-01T17:47:45;7.65;;;4.57;;
22201;SDS011;11266;51.522;6.302;2023-03-01T17:48:30;7.65;;;4.70;;
22201;SDS011;11266;51.522;6.302;2023-03-01T17:49:16;8.60;;;4.72;;
22201;SDS011;11266;51.522;6.302;2023-03-01T17:50:02;6.97;;;4.47;;
22201;SDS011;11266;51.522;6.302;2023-03-01T17:50:52;9.27;;;5.03;;
22201;SDS011;11266;51.522;6.302;2023-03-01T17:51:37;11.07;;;5.20;;
22201;SDS011;11266;51.522;6.302;2023-03-01T17:52:23;7.22;;;4.80;;
22201;SDS011;11266;51.522;6.302;2023-03-01T17:53:09;11.68;;;5.55;;
22201;SDS011;11266;51.522;6.302;2023-03-01T17:53:57;9.52;;;4.85;;
22201;SDS011;11266;51.522;6.302;2023-03-01T17:54:43;10.13;;;5.32;;
22201;SDS011;11266;51.522;6.302;2023-03-01T17:55:29;8.95;;;4.93;;
22201;SDS011;11266;51.522;6.302;2023-03-01T17:56:14;7.95;;;4.75;;
22201;SDS011;11266;51.522;6.302;2023-03-01T17:57:00;8.80;;;5.05;;
22201;SDS011;11266;51.522;6.302;2023-03-01T17:57:45;9.38;;;5.10;;
22201;SDS011;11266;51.522;6.302;2023-03-01T17:58:31;10.80;;;5.25;;
22201;SDS011;11266;51.522;6.302;2023-03-01T17:59:17;7.95;;;4.28;;
22201;SDS011;11266;51.522;6.302;2023-03-01T18:00:03;9.68;;;5.45;;
22201;SDS011;11266;51.522;6.302;2023-03-01T18:00:50;10.02;;;5.50;;
22201;SDS011;11266;51.522;6.302;2023-03-01T18:01:36;9.07;;;5.05;;
22201;SDS011;11266;51.522;6.302;2023-03-01T18:02:21;7.50;;;4.57;;
22201;SDS011;11266;51.522;6.302;2023-03-01T18:03:07;10.45;;;4.38;;
22201;SDS011;11266;51.522;6.302;2023-03-01T18:03:52;11.77;;;5.57;;
22201;SDS011;11266;51.522;6.302;2023-03-01T18:04:38;12.07;;;6.05;;
22201;SDS011;11266;51.522;6.302;2023-03-01T18:05:24;7.68;;;4.57;;
22201;SDS011;11266;51.522;6.302;2023-03-01T18:06:13;10.07;;;5.45;;
22201;SDS011;11266;51.522;6.302;2023-03-01T18:07:00;9.13;;;4.45;;
22201;SDS011;11266;51.522;6.302;2023-03-01T18:07:46;9.70;;;5.40;;
22201;SDS011;11266;51.522;6.302;2023-03-01T18:08:32;8.43;;;4.68;;
22201;SDS011;11266;51.522;6.302;2023-03-01T18:09:18;7.47;;;4.78;;
22201;SDS011;11266;51.522;6.302;2023-03-01T18:10:06;8.10;;;4.75;;
22201;SDS011;11266;51.522;6.302;2023-03-01T18:10:58;9.52;;;5.63;;
22201;SDS011;11266;51.522;6.302;2023-03-01T18:11:43;9.05;;;5.05;;
22201;SDS011;11266;51.522;6.302;2023-03-01T18:12:30;8.13;;;5.05;;
22201;SDS011;11266;51.522;6.302;2023-03-01T18:13:16;8.25;;;5.18;;
22201;SDS011;11266;51.522;6.302;2023-03-01T18:14:02;7.55;;;4.68;;
22201;SDS011;11266;51.522;6.302;2023-03-01T18:14:48;7.70;;;4.32;;
22201;SDS011;11266;51.522;6.302;2023-03-01T18:15:37;10.32;;;4.60;;
22201;SDS011;11266;51.522;6.302;2023-03-01T18:16:23;9.32;;;5.28;;
22201;SDS011;11266;51.522;6.302;2023-03-01T18:17:08;7.55;;;4.88;;
22201;SDS011;11266;51.522;6.302;2023-03-01T18:17:55;10.15;;;5.57;;
22201;SDS011;11266;51.522;6.302;2023-03-01T18:18:41;8.63;;;4.75;;
22201;SDS011;11266;51.522;6.302;2023-03-01T18:19:27;13.27;;;6.25;;
22201;SDS011;11266;51.522;6.302;2023-03-01T18:20:12;15.38;;;6.65;;
22201;SDS011;11266;51.522;6.302;2023-03-01T18:20:59;10.70;;;6.40;;
22201;SDS011;11266;51.522;6.302;2023-03-01T18:21:45;10.15;;;5.85;;
22201;SDS011;11266;51.522;6.302;2023-03-01T18:22:33;14.68;;;7.28;;
22201;SDS011;11266;51.522;6.302;2023-03-01T18:23:19;10.88;;;6.57;;
22201;SDS011;11266;51.522;6.302;2023-03-01T18:24:04;11.27;;;6.72;;
22201;SDS011;11266;51.522;6.302;2023-03-01T18:24:50;11.15;;;5.95;;
22201;SDS011;11266;51.522;6.302;2023-03-01T18:25:38;9.10;;;5.53;;
22201;SDS011;11266;51.522;6.302;2023-03-01T18:26:23;9.98;;;5.57;;
22201;SDS011;11266;51.522;6.302;2023-03-01T18:27:11;9.93;;;5.93;;
22201;SDS011;11266;51.522;6.302;2023-03-01T18:27:57;9.27;;;5.28;;
22201;SDS011;11266;51.522;6.302;2023-03-01T18:28:42;10.88;;;5.63;;
22201;SDS011;11266;51.522;6.302;2023-03-01T18:29:31;8.27;;;5.03;;
22201;SDS011;11266;51.522;6.302;2023-03-01T18:30:17;14.50;;;5.95;;
22201;SDS011;11266;51.522;6.302;2023-03-01T18:31:04;9.95;;;6.00;;
22201;SDS011;11266;51.522;6.302;2023-03-01T18:31:55;10.32;;;5.43;;
22201;SDS011;11266;51.522;6.302;2023-03-01T18:32:41;7.82;;;4.68;;
22201;SDS011;11266;51.522;6.302;2023-03-01T18:33:29;7.97;;;5.00;;
22201;SDS011;11266;51.522;6.302;2023-03-01T18:34:16;13.05;;;5.60;;
22201;SDS011;11266;51.522;6.302;2023-03-01T18:35:01;9.48;;;5.40;;
22201;SDS011;11266;51.522;6.302;2023-03-01T18:35:47;10.52;;;5.07;;
22201;SDS011;11266;51.522;6.302;2023-03-01T18:36:34;7.70;;;4.72;;
22201;SDS011;11266;51.522;6.302;2023-03-01T18:37:20;7.45;;;4.63;;
22201;SDS011;11266;51.522;6.302;2023-03-01T18:38:05;7.72;;;4.72;;
22201;SDS011;11266;51.522;6.302;2023-03-01T18:38:51;9.82;;;5.00;;
22201;SDS011;11266;51.522;6.302;2023-03-01T18:39:42;7.60;;;4.88;;
22201;SDS011;11266;51.522;6.302;2023-03-01T18:40:28;10.43;;;5.07;;
22201;SDS011;11266;51.522;6.302;2023-03-01T18:41:15;9.13;;;4.78;;
22201;SDS011;11266;51.522;6.302;2023-03-01T18:42:01;8.18;;;5.00;;
22201;SDS011;11266;51.522;6.302;2023-03-01T18:42:47;8.23;;;4.78;;
22201;SDS011;11266;51.522;6.302;2023-03-01T18:43:33;9.02;;;5.20;;
22201;SDS011;11266;51.522;6.302;2023-03-01T18:44:19;8.52;;;4.55;;
22201;SDS011;11266;51.522;6.302;2023-03-01T18:45:04;9.75;;;5.47;;
22201;SDS011;11266;51.522;6.302;2023-03-01T18:45:57;9.10;;;4.88;;
22201;SDS011;11266;51.522;6.302;2023-03-01T18:46:43;7.60;;;4.82;;
22201;SDS011;11266;51.522;6.302;2023-03-01T18:47:30;7.93;;;4.22;;
22201;SDS011;11266;51.522;6.302;2023-03-01T18:48:15;7.18;;;4.10;;
22201;SDS011;11266;51.522;6.302;2023-03-01T18:49:01;8.32;;;4.95;;
22201;SDS011;11266;51.522;6.302;2023-03-01T18:49:47;7.07;;;4.63;;
22201;SDS011;11266;51.522;6.302;2023-03-01T18:50:32;9.40;;;5.22;;
22201;SDS011;11266;51.522;6.302;2023-03-01T18:51:19;10.65;;;4.95;;
22201;SDS011;11266;51.522;6.302;2023-03-01T18:52:07;8.65;;;5.07;;
22201;SDS011;11266;51.522;6.302;2023-03-01T18:52:52;7.88;;;4.60;;
22201;SDS011;11266;51.522;6.302;2023-03-01T18:53:38;7.53;;;4.05;;
22201;SDS011;11266;51.522;6.302;2023-03-01T18:54:24;9.48;;;5.03;;
22201;SDS011;11266;51.522;6.302;2023-03-01T18:55:09;8.35;;;4.60;;
22201;SDS011;11266;51.522;6.302;2023-03-01T18:55:58;9.25;;;5.13;;
22201;SDS011;11266;51.522;6.302;2023-03-01T18:56:45;8.65;;;4.30;;
22201;SDS011;11266;51.522;6.302;2023-03-01T18:57:30;12.55;;;4.82;;
22201;SDS011;11266;51.522;6.302;2023-03-01T18:58:16;7.43;;;4.60;;
22201;SDS011;11266;51.522;6.302;2023-03-01T18:59:02;8.68;;;4.82;;
22201;SDS011;11266;51.522;6.302;2023-03-01T18:59:48;6.65;;;4.45;;
22201;SDS011;11266;51.522;6.302;2023-03-01T19:00:34;7.97;;;4.53;;
22201;SDS011;11266;51.522;6.302;2023-03-01T19:01:20;9.73;;;4.88;;
22201;SDS011;11266;51.522;6.302;2023-03-01T19:02:09;7.70;;;4.28;;
22201;SDS011;11266;51.522;6.302;2023-03-01T19:02:55;8.85;;;4.88;;
22201;SDS011;11266;51.522;6.302;2023-03-01T19:03:42;8.95;;;5.03;;
22201;SDS011;11266;51.522;6.302;2023-03-01T19:04:28;7.47;;;4.85;;
22201;SDS011;11266;51.522;6.302;2023-03-01T19:05:13;10.52;;;5.32;;
22201;SDS011;11266;51.522;6.302;2023-03-01T19:05:59;9.65;;;4.88;;
22201;SDS011;11266;51.522;6.302;2023-03-01T19:06:49;8.43;;;4.60;;
22201;SDS011;11266;51.522;6.302;2023-03-01T19:07:34;9.82;;;5.68;;
22201;SDS011;11266;51.522;6.302;2023-03-01T19:08:20;9.48;;;5.38;;
22201;SDS011;11266;51.522;6.302;2023-03-01T19:09:06;9.10;;;5.13;;
22201;SDS011;11266;51.522;6.302;2023-03-01T19:09:53;10.73;;;5.53;;
22201;SDS011;11266;51.522;6.302;2023-03-01T19:10:38;11.52;;;5.03;;
22201;SDS011;11266;51.522;6.302;2023-03-01T19:11:24;8.90;;;5.43;;
22201;SDS011;11266;51.522;6.302;2023-03-01T19:12:11;8.95;;;5.60;;
22201;SDS011;11266;51.522;6.302;2023-03-01T19:12:57;10.07;;;5.43;;
22201;SDS011;11266;51.522;6.302;2023-03-01T19:13:42;12.88;;;5.57;;
22201;SDS011;11266;51.522;6.302;2023-03-01T19:14:29;9.20;;;5.13;;
22201;SDS011;11266;51.522;6.302;2023-03-01T19:15:15;8.27;;;5.13;;
22201;SDS011;11266;51.522;6.302;2023-03-01T19:16:04;8.55;;;5.05;;
22201;SDS011;11266;51.522;6.302;2023-03-01T19:16:50;10.80;;;5.82;;
22201;SDS011;11266;51.522;6.302;2023-03-01T19:17:36;10.05;;;5.97;;
22201;SDS011;11266;51.522;6.302;2023-03-01T19:18:22;8.80;;;5.22;;
22201;SDS011;11266;51.522;6.302;2023-03-01T19:19:07;8.23;;;4.90;;
22201;SDS011;11266;51.522;6.302;2023-03-01T19:19:56;9.55;;;5.20;;
22201;SDS011;11266;51.522;6.302;2023-03-01T19:20:42;9.68;;;5.53;;
22201;SDS011;11266;51.522;6.302;2023-03-01T19:21:28;9.32;;;5.50;;
22201;SDS011;11266;51.522;6.302;2023-03-01T19:22:15;8.15;;;4.90;;
22201;SDS011;11266;51.522;6.302;2023-03-01T19:23:01;11.02;;;5.63;;
22201;SDS011;11266;51.522;6.302;2023-03-01T19:23:46;10.07;;;5.38;;
22201;SDS011;11266;51.522;6.302;2023-03-01T19:24:36;9.10;;;5.03;;
22201;SDS011;11266;51.522;6.302;2023-03-01T19:25:21;8.63;;;5.40;;
22201;SDS011;11266;51.522;6.302;2023-03-01T19:26:08;8.38;;;5.15;;
22201;SDS011;11266;51.522;6.302;2023-03-01T19:26:56;8.38;;;4.97;;
22201;SDS011;11266;51.522;6.302;2023-03-01T19:27:41;10.63;;;5.45;;
22201;SDS011;11266;51.522;6.302;2023-03-01T19:28:27;9.38;;;5.28;;
22201;SDS011;11266;51.522;6.302;2023-03-01T19:29:13;7.35;;;4.65;;
22201;SDS011;11266;51.522;6.302;2023-03-01T19:30:01;7.35;;;4.35;;
22201;SDS011;11266;51.522;6.302;2023-03-01T19:30:47;8.90;;;5.05;;
22201;SDS011;11266;51.522;6.302;2023-03-01T19:31:33;9.23;;;4.57;;
22201;SDS011;11266;51.522;6.302;2023-03-01T19:32:18;8.70;;;4.80;;
22201;SDS011;11266;51.522;6.302;2023-03-01T19:33:04;11.48;;;5.40;;
22201;SDS011;11266;51.522;6.302;2023-03-01T19:33:50;11.93;;;5.22;;
22201;SDS011;11266;51.522;6.302;2023-03-01T19:34:36;8.50;;;5.30;;
22201;SDS011;11266;51.522;6.302;2023-03-01T19:35:24;9.23;;;5.30;;
22201;SDS011;11266;51.522;6.302;2023-03-01T19:36:10;11.35;;;4.97;;
22201;SDS011;11266;51.522;6.302;2023-03-01T19:36:57;8.98;;;5.10;;
22201;SDS011;11266;51.522;6.302;2023-03-01T19:37:43;9.02;;;5.05;;
22201;SDS011;11266;51.522;6.302;2023-03-01T19:38:29;9.98;;;5.20;;
22201;SDS011;11266;51.522;6.302;2023-03-01T19:39:14;8.82;;;5.07;;
22201;SDS011;11266;51.522;6.302;2023-03-01T19:40:00;9.13;;;5.47;;
22201;SDS011;11266;51.522;6.302;2023-03-01T19:40:46;9.90;;;4.82;;
22201;SDS011;11266;51.522;6.302;2023-03-01T19:41:32;8.77;;;4.65;;
22201;SDS011;11266;51.522;6.302;2023-03-01T19:42:18;10.48;;;5.13;;
22201;SDS011;11266;51.522;6.302;2023-03-01T19:43:04;8.07;;;4.65;;
22201;SDS011;11266;51.522;6.302;2023-03-01T19:43:49;9.80;;;5.20;;
22201;SDS011;11266;51.522;6.302;2023-03-01T19:44:35;8.93;;;5.03;;
22201;SDS011;11266;51.522;6.302;2023-03-01T19:45:22;8.43;;;4.78;;
22201;SDS011;11266;51.522;6.302;2023-03-01T19:46:08;7.18;;;4.75;;
22201;SDS011;11266;51.522;6.302;2023-03-01T19:46:55;8.45;;;4.53;;
22201;SDS011;11266;51.522;6.302;2023-03-01T19:47:45;12.20;;;5.25;;
22201;SDS011;11266;51.522;6.302;2023-03-01T19:48:37;7.00;;;4.43;;
22201;SDS011;11266;51.522;6.302;2023-03-01T19:49:25;8.52;;;5.13;;
22201;SDS011;11266;51.522;6.302;2023-03-01T19:50:13;8.90;;;4.65;;
22201;SDS011;11266;51.522;6.302;2023-03-01T19:50:59;8.73;;;4.60;;
22201;SDS011;11266;51.522;6.302;2023-03-01T19:51:45;9.15;;;5.03;;
22201;SDS011;11266;51.522;6.302;2023-03-01T19:52:31;7.57;;;4.47;;
22201;SDS011;11266;51.522;6.302;2023-03-01T19:53:17;9.25;;;5.13;;
22201;SDS011;11266;51.522;6.302;2023-03-01T19:54:03;8.23;;;4.72;;
22201;SDS011;11266;51.522;6.302;2023-03-01T19:54:50;8.43;;;5.05;;
22201;SDS011;11266;51.522;6.302;2023-03-01T19:55:36;8.20;;;5.13;;
22201;SDS011;11266;51.522;6.302;2023-03-01T19:56:22;9.40;;;4.88;;
22201;SDS011;11266;51.522;6.302;2023-03-01T19:57:07;8.32;;;4.68;;
22201;SDS011;11266;51.522;6.302;2023-03-01T19:57:53;7.68;;;4.70;;
22201;SDS011;11266;51.522;6.302;2023-03-01T19:58:39;9.52;;;4.80;;
22201;SDS011;11266;51.522;6.302;2023-03-01T19:59:25;9.20;;;5.10;;
22201;SDS011;11266;51.522;6.302;2023-03-01T20:00:12;8.07;;;4.60;;
22201;SDS011;11266;51.522;6.302;2023-03-01T20:00:58;11.00;;;5.25;;
22201;SDS011;11266;51.522;6.302;2023-03-01T20:01:44;9.65;;;5.22;;
22201;SDS011;11266;51.522;6.302;2023-03-01T20:02:30;8.95;;;4.90;;
22201;SDS011;11266;51.522;6.302;2023-03-01T20:03:16;13.90;;;5.10;;
22201;SDS011;11266;51.522;6.302;2023-03-01T20:04:02;7.40;;;4.47;;
22201;SDS011;11266;51.522;6.302;2023-03-01T20:04:48;8.63;;;4.93;;
22201;SDS011;11266;51.522;6.302;2023-03-01T20:05:34;6.95;;;4.15;;
22201;SDS011;11266;51.522;6.302;2023-03-01T20:06:21;8.88;;;4.70;;
22201;SDS011;11266;51.522;6.302;2023-03-01T20:07:06;7.95;;;4.50;;
22201;SDS011;11266;51.522;6.302;2023-03-01T20:07:55;9.43;;;4.70;;
22201;SDS011;11266;51.522;6.302;2023-03-01T20:08:43;7.43;;;4.38;;
22201;SDS011;11266;51.522;6.302;2023-03-01T20:09:28;9.00;;;4.65;;
22201;SDS011;11266;51.522;6.302;2023-03-01T20:10:14;8.60;;;5.03;;
22201;SDS011;11266;51.522;6.302;2023-03-01T20:11:01;7.03;;;4.28;;
22201;SDS011;11266;51.522;6.302;2023-03-01T20:11:47;7.68;;;4.55;;
22201;SDS011;11266;51.522;6.302;2023-03-01T20:12:35;9.43;;;4.30;;
22201;SDS011;11266;51.522;6.302;2023-03-01T20:13:21;7.80;;;4.60;;
22201;SDS011;11266;51.522;6.302;2023-03-01T20:14:07;10.25;;;5.30;;
22201;SDS011;11266;51.522;6.302;2023-03-01T20:14:56;8.57;;;4.75;;
22201;SDS011;11266;51.522;6.302;2023-03-01T20:15:42;7.82;;;4.20;;
22201;SDS011;11266;51.522;6.302;2023-03-01T20:16:28;8.77;;;4.88;;
22201;SDS011;11266;51.522;6.302;2023-03-01T20:17:14;12.02;;;4.93;;
22201;SDS011;11266;51.522;6.302;2023-03-01T20:17:59;9.73;;;4.20;;
22201;SDS011;11266;51.522;6.302;2023-03-01T20:18:47;8.50;;;4.78;;
22201;SDS011;11266;51.522;6.302;2023-03-01T20:19:33;11.10;;;5.07;;
22201;SDS011;11266;51.522;6.302;2023-03-01T20:20:19;7.60;;;4.22;;
22201;SDS011;11266;51.522;6.302;2023-03-01T20:21:07;6.38;;;4.25;;
22201;SDS011;11266;51.522;6.302;2023-03-01T20:21:53;9.05;;;4.93;;
22201;SDS011;11266;51.522;6.302;2023-03-01T20:22:39;11.30;;;4.90;;
22201;SDS011;11266;51.522;6.302;2023-03-01T20:23:25;10.13;;;4.90;;